KAWM/AWM METAR and TAF weather

Enter ICAO airport designator
Station Type Date Time Source
KAWM METAR 2020/09/22 05:53 UTC NOAA

KAWM 220553Z AUTO 13007KT 10SM BKN080 21/13 A3018 RMK AO2 SLP217 T02060133 10239 20206 402720161 58006


Station Type Date Time Source
KAWM Decoded METAR 2020/09/22 05:53 UTC NOAA

WEST MEMPHIS MUNICIPAL AIRPORT, AR, United States (KAWM) 35-08N 090-14W
Sep 22, 2020 - 01:53 AM EDT / 2020.09.22 0553 UTC
Wind: from the SE (130 degrees) at 8 MPH (7 KT):0
Visibility: 10 mile(s):0
Sky conditions: mostly cloudy
Temperature: 69.1 F (20.6 C)
Dew Point: 55.9 F (13.3 C)
Relative Humidity: 62%
Pressure (altimeter): 30.18 in. Hg (1022 hPa)
Pressure tendency: 0.02 inches (0.6 hPa) lower than three hours ago
ob: KAWM 220553Z AUTO 13007KT 10SM BKN080 21/13 A3018 RMK AO2 SLP217 T02060133 10239 20206 402720161 58006
cycle: 6

Station Type Date Time Source
KAWM TAF UTC NOAA

Error!

Example: see airport list